sensor_id;sensor_type;location;lat;lon;timestamp;P1;durP1;ratioP1;P2;durP2;ratioP2
793;SDS011;380;48.738;9.214;2023-12-20T00:00:49;2.58;;;1.13;;
793;SDS011;380;48.738;9.214;2023-12-20T00:03:15;2.40;;;0.85;;
793;SDS011;380;48.738;9.214;2023-12-20T00:05:41;2.50;;;1.08;;
793;SDS011;380;48.738;9.214;2023-12-20T00:08:07;1.35;;;0.80;;
793;SDS011;380;48.738;9.214;2023-12-20T00:10:33;1.85;;;1.15;;
793;SDS011;380;48.738;9.214;2023-12-20T00:12:59;1.67;;;0.73;;
793;SDS011;380;48.738;9.214;2023-12-20T00:15:25;2.13;;;1.08;;
793;SDS011;380;48.738;9.214;2023-12-20T00:17:51;1.70;;;0.90;;
793;SDS011;380;48.738;9.214;2023-12-20T00:20:17;1.52;;;0.85;;
793;SDS011;380;48.738;9.214;2023-12-20T00:22:43;2.33;;;1.13;;
793;SDS011;380;48.738;9.214;2023-12-20T00:25:09;1.63;;;1.00;;
793;SDS011;380;48.738;9.214;2023-12-20T00:27:35;1.15;;;0.50;;
793;SDS011;380;48.738;9.214;2023-12-20T00:30:01;1.88;;;0.90;;
793;SDS011;380;48.738;9.214;2023-12-20T00:32:27;2.47;;;1.00;;
793;SDS011;380;48.738;9.214;2023-12-20T00:34:53;1.00;;;0.60;;
793;SDS011;380;48.738;9.214;2023-12-20T00:37:19;1.45;;;0.60;;
793;SDS011;380;48.738;9.214;2023-12-20T00:39:45;1.20;;;0.60;;
793;SDS011;380;48.738;9.214;2023-12-20T00:42:11;0.90;;;0.50;;
793;SDS011;380;48.738;9.214;2023-12-20T00:44:37;1.38;;;0.63;;
793;SDS011;380;48.738;9.214;2023-12-20T00:47:03;2.80;;;0.82;;
793;SDS011;380;48.738;9.214;2023-12-20T00:49:29;0.90;;;0.50;;
793;SDS011;380;48.738;9.214;2023-12-20T00:51:54;1.45;;;0.70;;
793;SDS011;380;48.738;9.214;2023-12-20T00:54:20;0.93;;;0.50;;
793;SDS011;380;48.738;9.214;2023-12-20T00:56:46;1.63;;;0.73;;
793;SDS011;380;48.738;9.214;2023-12-20T00:59:12;1.67;;;0.75;;
793;SDS011;380;48.738;9.214;2023-12-20T01:01:39;1.70;;;0.80;;
793;SDS011;380;48.738;9.214;2023-12-20T01:04:05;1.27;;;0.55;;
793;SDS011;380;48.738;9.214;2023-12-20T01:06:31;0.95;;;0.50;;
793;SDS011;380;48.738;9.214;2023-12-20T01:08:57;1.55;;;0.82;;
793;SDS011;380;48.738;9.214;2023-12-20T01:11:23;0.82;;;0.38;;
793;SDS011;380;48.738;9.214;2023-12-20T01:13:49;0.68;;;0.35;;
793;SDS011;380;48.738;9.214;2023-12-20T01:16:15;4.30;;;0.90;;
793;SDS011;380;48.738;9.214;2023-12-20T01:18:41;2.38;;;0.70;;
793;SDS011;380;48.738;9.214;2023-12-20T01:21:07;1.13;;;0.60;;
793;SDS011;380;48.738;9.214;2023-12-20T01:23:32;1.27;;;0.65;;
793;SDS011;380;48.738;9.214;2023-12-20T01:25:58;2.05;;;1.00;;
793;SDS011;380;48.738;9.214;2023-12-20T01:28:25;2.42;;;0.70;;
793;SDS011;380;48.738;9.214;2023-12-20T01:30:51;0.90;;;0.60;;
793;SDS011;380;48.738;9.214;2023-12-20T01:33:17;2.38;;;0.80;;
793;SDS011;380;48.738;9.214;2023-12-20T01:35:43;1.30;;;0.70;;
793;SDS011;380;48.738;9.214;2023-12-20T01:38:09;0.85;;;0.45;;
793;SDS011;380;48.738;9.214;2023-12-20T01:40:35;1.45;;;0.60;;
793;SDS011;380;48.738;9.214;2023-12-20T01:43:02;1.35;;;0.63;;
793;SDS011;380;48.738;9.214;2023-12-20T01:45:28;1.60;;;0.68;;
793;SDS011;380;48.738;9.214;2023-12-20T01:47:55;1.45;;;0.68;;
793;SDS011;380;48.738;9.214;2023-12-20T01:50:21;1.73;;;0.73;;
793;SDS011;380;48.738;9.214;2023-12-20T01:52:47;1.33;;;0.70;;
793;SDS011;380;48.738;9.214;2023-12-20T01:55:13;1.45;;;0.70;;
793;SDS011;380;48.738;9.214;2023-12-20T01:57:40;1.77;;;0.52;;
793;SDS011;380;48.738;9.214;2023-12-20T02:00:07;1.52;;;0.85;;
793;SDS011;380;48.738;9.214;2023-12-20T02:02:34;1.08;;;0.55;;
793;SDS011;380;48.738;9.214;2023-12-20T02:05:02;1.80;;;0.88;;
793;SDS011;380;48.738;9.214;2023-12-20T02:07:29;1.85;;;0.70;;
793;SDS011;380;48.738;9.214;2023-12-20T02:09:56;1.48;;;0.63;;
793;SDS011;380;48.738;9.214;2023-12-20T02:12:22;2.92;;;0.60;;
793;SDS011;380;48.738;9.214;2023-12-20T02:14:48;1.40;;;0.80;;
793;SDS011;380;48.738;9.214;2023-12-20T02:17:15;1.65;;;0.68;;
793;SDS011;380;48.738;9.214;2023-12-20T02:19:41;1.23;;;0.60;;
793;SDS011;380;48.738;9.214;2023-12-20T02:22:10;1.77;;;0.50;;
793;SDS011;380;48.738;9.214;2023-12-20T02:24:36;1.58;;;0.70;;
793;SDS011;380;48.738;9.214;2023-12-20T02:27:02;1.83;;;0.60;;
793;SDS011;380;48.738;9.214;2023-12-20T02:29:28;1.23;;;0.57;;
793;SDS011;380;48.738;9.214;2023-12-20T02:31:54;1.30;;;0.55;;
793;SDS011;380;48.738;9.214;2023-12-20T02:34:20;1.35;;;0.77;;
793;SDS011;380;48.738;9.214;2023-12-20T02:36:46;1.17;;;0.68;;
793;SDS011;380;48.738;9.214;2023-12-20T02:39:12;0.90;;;0.40;;
793;SDS011;380;48.738;9.214;2023-12-20T02:41:38;1.00;;;0.50;;
793;SDS011;380;48.738;9.214;2023-12-20T02:44:04;0.98;;;0.40;;
793;SDS011;380;48.738;9.214;2023-12-20T02:46:30;2.75;;;0.50;;
793;SDS011;380;48.738;9.214;2023-12-20T02:48:56;1.33;;;0.73;;
793;SDS011;380;48.738;9.214;2023-12-20T02:51:22;1.65;;;0.73;;
793;SDS011;380;48.738;9.214;2023-12-20T02:53:49;1.70;;;0.68;;
793;SDS011;380;48.738;9.214;2023-12-20T02:56:15;1.10;;;0.60;;
793;SDS011;380;48.738;9.214;2023-12-20T02:58:40;0.90;;;0.40;;
793;SDS011;380;48.738;9.214;2023-12-20T03:01:06;0.57;;;0.30;;
793;SDS011;380;48.738;9.214;2023-12-20T03:03:35;1.70;;;0.70;;
793;SDS011;380;48.738;9.214;2023-12-20T03:06:01;1.33;;;0.47;;
793;SDS011;380;48.738;9.214;2023-12-20T03:08:27;1.42;;;0.52;;
793;SDS011;380;48.738;9.214;2023-12-20T03:10:53;0.90;;;0.45;;
793;SDS011;380;48.738;9.214;2023-12-20T03:13:19;1.08;;;0.22;;
793;SDS011;380;48.738;9.214;2023-12-20T03:15:45;0.63;;;0.30;;
793;SDS011;380;48.738;9.214;2023-12-20T03:18:11;0.98;;;0.40;;
793;SDS011;380;48.738;9.214;2023-12-20T03:20:37;0.60;;;0.30;;
793;SDS011;380;48.738;9.214;2023-12-20T03:23:03;1.40;;;0.70;;
793;SDS011;380;48.738;9.214;2023-12-20T03:25:29;1.13;;;0.40;;
793;SDS011;380;48.738;9.214;2023-12-20T03:27:55;1.27;;;0.50;;
793;SDS011;380;48.738;9.214;2023-12-20T03:30:21;1.75;;;0.70;;
793;SDS011;380;48.738;9.214;2023-12-20T03:32:47;0.57;;;0.30;;
793;SDS011;380;48.738;9.214;2023-12-20T03:35:13;1.33;;;0.63;;
793;SDS011;380;48.738;9.214;2023-12-20T03:37:39;1.60;;;0.75;;
793;SDS011;380;48.738;9.214;2023-12-20T03:40:05;1.58;;;0.63;;
793;SDS011;380;48.738;9.214;2023-12-20T03:42:31;1.83;;;0.63;;
793;SDS011;380;48.738;9.214;2023-12-20T03:44:57;1.10;;;0.50;;
793;SDS011;380;48.738;9.214;2023-12-20T03:47:23;0.75;;;0.32;;
793;SDS011;380;48.738;9.214;2023-12-20T03:49:49;0.52;;;0.22;;
793;SDS011;380;48.738;9.214;2023-12-20T03:52:14;0.80;;;0.40;;
793;SDS011;380;48.738;9.214;2023-12-20T03:54:40;0.57;;;0.20;;
793;SDS011;380;48.738;9.214;2023-12-20T03:57:07;0.93;;;0.17;;
793;SDS011;380;48.738;9.214;2023-12-20T03:59:37;0.75;;;0.30;;
793;SDS011;380;48.738;9.214;2023-12-20T04:02:03;0.70;;;0.30;;
793;SDS011;380;48.738;9.214;2023-12-20T04:04:29;0.65;;;0.43;;
793;SDS011;380;48.738;9.214;2023-12-20T04:06:55;0.55;;;0.20;;
793;SDS011;380;48.738;9.214;2023-12-20T04:09:21;0.13;;;0.03;;
793;SDS011;380;48.738;9.214;2023-12-20T04:11:47;0.45;;;0.20;;
793;SDS011;380;48.738;9.214;2023-12-20T04:14:13;0.65;;;0.10;;
793;SDS011;380;48.738;9.214;2023-12-20T04:16:39;0.10;;;0.00;;
793;SDS011;380;48.738;9.214;2023-12-20T04:19:05;0.38;;;0.20;;
793;SDS011;380;48.738;9.214;2023-12-20T04:21:31;0.25;;;0.10;;
793;SDS011;380;48.738;9.214;2023-12-20T04:23:57;0.47;;;0.15;;
793;SDS011;380;48.738;9.214;2023-12-20T04:26:23;0.10;;;0.05;;
793;SDS011;380;48.738;9.214;2023-12-20T04:28:49;0.22;;;0.10;;
793;SDS011;380;48.738;9.214;2023-12-20T04:31:15;0.52;;;0.10;;
793;SDS011;380;48.738;9.214;2023-12-20T04:33:40;0.10;;;0.00;;
793;SDS011;380;48.738;9.214;2023-12-20T04:36:06;1.90;;;0.45;;
793;SDS011;380;48.738;9.214;2023-12-20T04:38:34;0.88;;;0.10;;
793;SDS011;380;48.738;9.214;2023-12-20T04:40:59;4.68;;;0.20;;
793;SDS011;380;48.738;9.214;2023-12-20T04:43:25;0.25;;;0.10;;
793;SDS011;380;48.738;9.214;2023-12-20T04:45:51;0.68;;;0.10;;
793;SDS011;380;48.738;9.214;2023-12-20T04:48:17;0.00;;;0.00;;
793;SDS011;380;48.738;9.214;2023-12-20T04:50:43;0.10;;;0.08;;
793;SDS011;380;48.738;9.214;2023-12-20T04:53:09;0.15;;;0.15;;
793;SDS011;380;48.738;9.214;2023-12-20T04:55:35;0.00;;;0.00;;
793;SDS011;380;48.738;9.214;2023-12-20T04:58:01;0.25;;;0.10;;
793;SDS011;380;48.738;9.214;2023-12-20T05:00:27;0.08;;;0.03;;
793;SDS011;380;48.738;9.214;2023-12-20T05:02:56;0.10;;;0.10;;
793;SDS011;380;48.738;9.214;2023-12-20T05:05:22;0.55;;;0.17;;
793;SDS011;380;48.738;9.214;2023-12-20T05:07:48;0.10;;;0.03;;
793;SDS011;380;48.738;9.214;2023-12-20T05:10:14;0.40;;;0.20;;
793;SDS011;380;48.738;9.214;2023-12-20T05:12:40;0.00;;;0.00;;
793;SDS011;380;48.738;9.214;2023-12-20T05:15:06;0.10;;;0.10;;
793;SDS011;380;48.738;9.214;2023-12-20T05:17:32;0.20;;;0.10;;
793;SDS011;380;48.738;9.214;2023-12-20T05:19:58;0.55;;;0.30;;
793;SDS011;380;48.738;9.214;2023-12-20T05:22:24;0.68;;;0.20;;
793;SDS011;380;48.738;9.214;2023-12-20T05:24:50;0.57;;;0.30;;
793;SDS011;380;48.738;9.214;2023-12-20T05:27:16;0.63;;;0.22;;
793;SDS011;380;48.738;9.214;2023-12-20T05:29:42;1.27;;;0.30;;
793;SDS011;380;48.738;9.214;2023-12-20T05:32:08;1.10;;;0.32;;
793;SDS011;380;48.738;9.214;2023-12-20T05:34:34;0.55;;;0.20;;
793;SDS011;380;48.738;9.214;2023-12-20T05:37:00;0.40;;;0.20;;
793;SDS011;380;48.738;9.214;2023-12-20T05:39:26;0.88;;;0.15;;
793;SDS011;380;48.738;9.214;2023-12-20T05:41:52;0.32;;;0.20;;
793;SDS011;380;48.738;9.214;2023-12-20T05:44:18;0.43;;;0.20;;
793;SDS011;380;48.738;9.214;2023-12-20T05:46:44;0.32;;;0.10;;
793;SDS011;380;48.738;9.214;2023-12-20T05:49:10;0.35;;;0.20;;
793;SDS011;380;48.738;9.214;2023-12-20T05:51:36;0.20;;;0.17;;
793;SDS011;380;48.738;9.214;2023-12-20T05:54:02;0.47;;;0.20;;
793;SDS011;380;48.738;9.214;2023-12-20T05:56:29;3.15;;;0.47;;
793;SDS011;380;48.738;9.214;2023-12-20T05:58:55;0.50;;;0.30;;
793;SDS011;380;48.738;9.214;2023-12-20T06:01:20;0.73;;;0.40;;
793;SDS011;380;48.738;9.214;2023-12-20T06:03:46;0.63;;;0.30;;
793;SDS011;380;48.738;9.214;2023-12-20T06:06:12;0.93;;;0.30;;
793;SDS011;380;48.738;9.214;2023-12-20T06:08:38;5.30;;;0.60;;
793;SDS011;380;48.738;9.214;2023-12-20T06:11:04;0.60;;;0.30;;
793;SDS011;380;48.738;9.214;2023-12-20T06:13:30;0.65;;;0.30;;
793;SDS011;380;48.738;9.214;2023-12-20T06:15:56;0.75;;;0.30;;
793;SDS011;380;48.738;9.214;2023-12-20T06:18:22;3.08;;;0.60;;
793;SDS011;380;48.738;9.214;2023-12-20T06:20:49;0.77;;;0.32;;
793;SDS011;380;48.738;9.214;2023-12-20T06:23:15;0.77;;;0.38;;
793;SDS011;380;48.738;9.214;2023-12-20T06:25:41;9.65;;;0.90;;
793;SDS011;380;48.738;9.214;2023-12-20T06:28:07;0.68;;;0.30;;
793;SDS011;380;48.738;9.214;2023-12-20T06:30:35;1.05;;;0.40;;
793;SDS011;380;48.738;9.214;2023-12-20T06:33:01;0.80;;;0.40;;
793;SDS011;380;48.738;9.214;2023-12-20T06:35:27;0.70;;;0.30;;
793;SDS011;380;48.738;9.214;2023-12-20T06:37:53;0.20;;;0.10;;
793;SDS011;380;48.738;9.214;2023-12-20T06:40:19;0.50;;;0.25;;
793;SDS011;380;48.738;9.214;2023-12-20T06:42:45;1.05;;;0.43;;
793;SDS011;380;48.738;9.214;2023-12-20T06:45:11;0.75;;;0.32;;
793;SDS011;380;48.738;9.214;2023-12-20T06:47:37;0.80;;;0.45;;
793;SDS011;380;48.738;9.214;2023-12-20T06:50:04;1.02;;;0.38;;
793;SDS011;380;48.738;9.214;2023-12-20T06:52:30;2.88;;;0.52;;
793;SDS011;380;48.738;9.214;2023-12-20T06:54:56;0.95;;;0.40;;
793;SDS011;380;48.738;9.214;2023-12-20T06:57:21;1.23;;;0.50;;
793;SDS011;380;48.738;9.214;2023-12-20T06:59:48;0.98;;;0.45;;
793;SDS011;380;48.738;9.214;2023-12-20T07:02:14;1.88;;;0.75;;
793;SDS011;380;48.738;9.214;2023-12-20T07:04:40;1.05;;;0.50;;
793;SDS011;380;48.738;9.214;2023-12-20T07:07:06;1.20;;;0.45;;
793;SDS011;380;48.738;9.214;2023-12-20T07:09:32;1.20;;;0.60;;
793;SDS011;380;48.738;9.214;2023-12-20T07:11:58;1.33;;;0.68;;
793;SDS011;380;48.738;9.214;2023-12-20T07:14:24;1.20;;;0.60;;
793;SDS011;380;48.738;9.214;2023-12-20T07:16:50;1.63;;;0.73;;
793;SDS011;380;48.738;9.214;2023-12-20T07:19:16;1.15;;;0.55;;
793;SDS011;380;48.738;9.214;2023-12-20T07:21:42;1.92;;;0.52;;
793;SDS011;380;48.738;9.214;2023-12-20T07:24:09;1.08;;;0.50;;
793;SDS011;380;48.738;9.214;2023-12-20T07:26:35;1.23;;;0.68;;
793;SDS011;380;48.738;9.214;2023-12-20T07:29:02;1.15;;;0.50;;
793;SDS011;380;48.738;9.214;2023-12-20T07:31:29;1.00;;;0.60;;
793;SDS011;380;48.738;9.214;2023-12-20T07:33:55;0.90;;;0.60;;
793;SDS011;380;48.738;9.214;2023-12-20T07:36:21;1.10;;;0.50;;
793;SDS011;380;48.738;9.214;2023-12-20T07:38:47;1.17;;;0.65;;
793;SDS011;380;48.738;9.214;2023-12-20T07:41:13;3.85;;;0.77;;
793;SDS011;380;48.738;9.214;2023-12-20T07:43:41;4.70;;;0.75;;
793;SDS011;380;48.738;9.214;2023-12-20T07:46:07;4.45;;;1.23;;
793;SDS011;380;48.738;9.214;2023-12-20T07:48:34;2.63;;;1.70;;
793;SDS011;380;48.738;9.214;2023-12-20T07:51:00;3.58;;;1.48;;
793;SDS011;380;48.738;9.214;2023-12-20T07:53:26;2.15;;;1.45;;
793;SDS011;380;48.738;9.214;2023-12-20T07:55:52;2.33;;;1.42;;
793;SDS011;380;48.738;9.214;2023-12-20T07:58:18;2.60;;;1.77;;
793;SDS011;380;48.738;9.214;2023-12-20T08:00:44;2.40;;;1.63;;
793;SDS011;380;48.738;9.214;2023-12-20T08:03:10;4.55;;;2.58;;
793;SDS011;380;48.738;9.214;2023-12-20T08:05:36;5.93;;;2.33;;
793;SDS011;380;48.738;9.214;2023-12-20T08:08:03;4.03;;;2.55;;
793;SDS011;380;48.738;9.214;2023-12-20T08:10:29;4.53;;;2.72;;
793;SDS011;380;48.738;9.214;2023-12-20T08:12:55;4.10;;;2.85;;
793;SDS011;380;48.738;9.214;2023-12-20T08:15:21;3.88;;;2.63;;
793;SDS011;380;48.738;9.214;2023-12-20T08:17:48;3.70;;;2.72;;
793;SDS011;380;48.738;9.214;2023-12-20T08:20:15;3.75;;;2.78;;
793;SDS011;380;48.738;9.214;2023-12-20T08:22:41;4.22;;;3.00;;
793;SDS011;380;48.738;9.214;2023-12-20T08:25:07;6.80;;;3.67;;
793;SDS011;380;48.738;9.214;2023-12-20T08:27:33;5.25;;;2.65;;
793;SDS011;380;48.738;9.214;2023-12-20T08:29:59;4.40;;;2.65;;
793;SDS011;380;48.738;9.214;2023-12-20T08:32:26;8.70;;;3.10;;
793;SDS011;380;48.738;9.214;2023-12-20T08:34:52;4.72;;;3.35;;
793;SDS011;380;48.738;9.214;2023-12-20T08:37:18;5.28;;;3.50;;
793;SDS011;380;48.738;9.214;2023-12-20T08:39:43;4.85;;;3.20;;
793;SDS011;380;48.738;9.214;2023-12-20T08:42:09;4.90;;;3.45;;
793;SDS011;380;48.738;9.214;2023-12-20T08:44:35;4.13;;;3.20;;
793;SDS011;380;48.738;9.214;2023-12-20T08:47:01;4.60;;;3.13;;
793;SDS011;380;48.738;9.214;2023-12-20T08:49:27;7.80;;;3.42;;
793;SDS011;380;48.738;9.214;2023-12-20T08:51:53;4.07;;;3.03;;
793;SDS011;380;48.738;9.214;2023-12-20T08:54:19;4.25;;;3.28;;
793;SDS011;380;48.738;9.214;2023-12-20T08:56:45;4.70;;;3.28;;
793;SDS011;380;48.738;9.214;2023-12-20T08:59:12;5.90;;;3.38;;
793;SDS011;380;48.738;9.214;2023-12-20T09:01:38;4.60;;;3.50;;
793;SDS011;380;48.738;9.214;2023-12-20T09:04:04;3.72;;;3.13;;
793;SDS011;380;48.738;9.214;2023-12-20T09:06:31;3.28;;;2.70;;
793;SDS011;380;48.738;9.214;2023-12-20T09:08:57;3.55;;;2.88;;
793;SDS011;380;48.738;9.214;2023-12-20T09:11:23;3.58;;;2.80;;
793;SDS011;380;48.738;9.214;2023-12-20T09:13:50;3.90;;;2.63;;
793;SDS011;380;48.738;9.214;2023-12-20T09:16:16;5.30;;;3.53;;
793;SDS011;380;48.738;9.214;2023-12-20T09:18:42;4.38;;;2.70;;
793;SDS011;380;48.738;9.214;2023-12-20T09:21:08;4.18;;;2.83;;
793;SDS011;380;48.738;9.214;2023-12-20T09:23:34;3.88;;;2.83;;
793;SDS011;380;48.738;9.214;2023-12-20T09:26:01;3.42;;;2.78;;
793;SDS011;380;48.738;9.214;2023-12-20T09:28:27;5.78;;;2.85;;
793;SDS011;380;48.738;9.214;2023-12-20T09:30:53;3.85;;;3.05;;
793;SDS011;380;48.738;9.214;2023-12-20T09:33:19;5.40;;;2.53;;
793;SDS011;380;48.738;9.214;2023-12-20T09:35:45;4.53;;;2.67;;
793;SDS011;380;48.738;9.214;2023-12-20T09:38:12;5.22;;;3.08;;
793;SDS011;380;48.738;9.214;2023-12-20T09:40:41;5.32;;;2.72;;
793;SDS011;380;48.738;9.214;2023-12-20T09:43:11;4.88;;;2.65;;
793;SDS011;380;48.738;9.214;2023-12-20T09:45:39;5.53;;;2.10;;
793;SDS011;380;48.738;9.214;2023-12-20T09:48:06;5.18;;;2.50;;
793;SDS011;380;48.738;9.214;2023-12-20T09:50:33;8.88;;;2.35;;
793;SDS011;380;48.738;9.214;2023-12-20T09:52:59;3.72;;;1.40;;
793;SDS011;380;48.738;9.214;2023-12-20T09:55:26;7.70;;;2.60;;
793;SDS011;380;48.738;9.214;2023-12-20T09:57:53;7.10;;;2.40;;
793;SDS011;380;48.738;9.214;2023-12-20T10:00:19;8.27;;;2.05;;
793;SDS011;380;48.738;9.214;2023-12-20T10:02:49;6.78;;;2.13;;
793;SDS011;380;48.738;9.214;2023-12-20T10:05:16;2.35;;;1.40;;
793;SDS011;380;48.738;9.214;2023-12-20T10:07:48;2.83;;;1.30;;
793;SDS011;380;48.738;9.214;2023-12-20T10:10:14;3.05;;;1.45;;
793;SDS011;380;48.738;9.214;2023-12-20T10:12:40;7.07;;;1.77;;
793;SDS011;380;48.738;9.214;2023-12-20T10:15:08;5.35;;;1.45;;
793;SDS011;380;48.738;9.214;2023-12-20T10:17:35;5.45;;;1.20;;
793;SDS011;380;48.738;9.214;2023-12-20T10:20:01;2.20;;;1.20;;
793;SDS011;380;48.738;9.214;2023-12-20T10:22:27;2.22;;;1.30;;
793;SDS011;380;48.738;9.214;2023-12-20T10:24:56;3.45;;;1.58;;
793;SDS011;380;48.738;9.214;2023-12-20T10:27:22;3.10;;;1.58;;
793;SDS011;380;48.738;9.214;2023-12-20T10:29:48;2.28;;;0.80;;
793;SDS011;380;48.738;9.214;2023-12-20T10:32:25;2.10;;;0.80;;
793;SDS011;380;48.738;9.214;2023-12-20T10:34:54;4.80;;;2.15;;
793;SDS011;380;48.738;9.214;2023-12-20T10:37:21;4.80;;;1.07;;
793;SDS011;380;48.738;9.214;2023-12-20T10:39:53;3.60;;;1.40;;
793;SDS011;380;48.738;9.214;2023-12-20T10:42:22;6.97;;;1.80;;
793;SDS011;380;48.738;9.214;2023-12-20T10:44:50;7.93;;;1.20;;
793;SDS011;380;48.738;9.214;2023-12-20T10:47:16;1.15;;;0.80;;
793;SDS011;380;48.738;9.214;2023-12-20T10:49:42;4.88;;;1.00;;
793;SDS011;380;48.738;9.214;2023-12-20T10:52:09;3.42;;;1.17;;
793;SDS011;380;48.738;9.214;2023-12-20T10:54:36;6.00;;;1.35;;
793;SDS011;380;48.738;9.214;2023-12-20T10:57:02;5.88;;;1.45;;
793;SDS011;380;48.738;9.214;2023-12-20T10:59:30;1.33;;;0.75;;
793;SDS011;380;48.738;9.214;2023-12-20T11:01:58;12.15;;;4.75;;
793;SDS011;380;48.738;9.214;2023-12-20T11:04:44;3.88;;;1.90;;
793;SDS011;380;48.738;9.214;2023-12-20T11:09:51;2.38;;;0.70;;
793;SDS011;380;48.738;9.214;2023-12-20T11:12:28;4.15;;;1.05;;
793;SDS011;380;48.738;9.214;2023-12-20T11:14:57;9.45;;;1.27;;
793;SDS011;380;48.738;9.214;2023-12-20T11:17:29;2.85;;;0.80;;
793;SDS011;380;48.738;9.214;2023-12-20T11:22:21;6.82;;;1.30;;
793;SDS011;380;48.738;9.214;2023-12-20T11:24:47;6.38;;;1.95;;
793;SDS011;380;48.738;9.214;2023-12-20T11:27:14;3.10;;;1.15;;
793;SDS011;380;48.738;9.214;2023-12-20T11:29:40;2.88;;;1.35;;
793;SDS011;380;48.738;9.214;2023-12-20T11:34:57;1.70;;;1.10;;
793;SDS011;380;48.738;9.214;2023-12-20T11:37:30;2.78;;;1.17;;
793;SDS011;380;48.738;9.214;2023-12-20T11:40:02;2.45;;;1.17;;
793;SDS011;380;48.738;9.214;2023-12-20T11:42:32;3.40;;;0.87;;
793;SDS011;380;48.738;9.214;2023-12-20T11:44:59;4.35;;;1.23;;
793;SDS011;380;48.738;9.214;2023-12-20T11:47:25;3.72;;;1.08;;
793;SDS011;380;48.738;9.214;2023-12-20T11:49:51;6.28;;;1.45;;
793;SDS011;380;48.738;9.214;2023-12-20T11:52:17;3.40;;;0.95;;
793;SDS011;380;48.738;9.214;2023-12-20T11:54:43;4.07;;;1.63;;
793;SDS011;380;48.738;9.214;2023-12-20T11:57:09;2.92;;;1.10;;
793;SDS011;380;48.738;9.214;2023-12-20T11:59:36;2.97;;;1.17;;
793;SDS011;380;48.738;9.214;2023-12-20T12:02:02;2.35;;;1.35;;
793;SDS011;380;48.738;9.214;2023-12-20T12:04:28;3.20;;;1.58;;
793;SDS011;380;48.738;9.214;2023-12-20T12:06:54;1.58;;;0.55;;
793;SDS011;380;48.738;9.214;2023-12-20T12:09:20;1.23;;;0.52;;
793;SDS011;380;48.738;9.214;2023-12-20T12:11:46;2.65;;;0.80;;
793;SDS011;380;48.738;9.214;2023-12-20T12:14:12;2.05;;;1.08;;
793;SDS011;380;48.738;9.214;2023-12-20T12:16:38;2.13;;;1.20;;
793;SDS011;380;48.738;9.214;2023-12-20T12:19:04;1.55;;;1.08;;
793;SDS011;380;48.738;9.214;2023-12-20T12:21:30;3.30;;;1.20;;
793;SDS011;380;48.738;9.214;2023-12-20T12:24:08;4.95;;;1.40;;
793;SDS011;380;48.738;9.214;2023-12-20T12:26:34;3.85;;;1.83;;
793;SDS011;380;48.738;9.214;2023-12-20T12:29:00;4.38;;;1.45;;
793;SDS011;380;48.738;9.214;2023-12-20T12:31:26;13.23;;;3.28;;
793;SDS011;380;48.738;9.214;2023-12-20T12:33:52;5.40;;;3.65;;
793;SDS011;380;48.738;9.214;2023-12-20T12:36:18;4.45;;;1.00;;
793;SDS011;380;48.738;9.214;2023-12-20T12:38:44;8.07;;;1.65;;
793;SDS011;380;48.738;9.214;2023-12-20T12:41:12;4.85;;;1.48;;
793;SDS011;380;48.738;9.214;2023-12-20T12:43:38;8.32;;;1.42;;
793;SDS011;380;48.738;9.214;2023-12-20T12:46:04;4.28;;;1.08;;
793;SDS011;380;48.738;9.214;2023-12-20T12:48:30;2.72;;;1.10;;
793;SDS011;380;48.738;9.214;2023-12-20T12:50:56;2.13;;;0.77;;
793;SDS011;380;48.738;9.214;2023-12-20T12:53:24;1.50;;;0.60;;
793;SDS011;380;48.738;9.214;2023-12-20T12:55:50;2.53;;;1.23;;
793;SDS011;380;48.738;9.214;2023-12-20T12:58:16;0.93;;;0.45;;
793;SDS011;380;48.738;9.214;2023-12-20T13:00:42;6.72;;;1.58;;
793;SDS011;380;48.738;9.214;2023-12-20T13:03:08;5.03;;;0.95;;
793;SDS011;380;48.738;9.214;2023-12-20T13:05:34;2.88;;;1.05;;
793;SDS011;380;48.738;9.214;2023-12-20T13:08:00;2.45;;;0.77;;
793;SDS011;380;48.738;9.214;2023-12-20T13:10:26;2.65;;;1.10;;
793;SDS011;380;48.738;9.214;2023-12-20T13:12:52;1.30;;;0.73;;
793;SDS011;380;48.738;9.214;2023-12-20T13:15:18;3.00;;;0.93;;
793;SDS011;380;48.738;9.214;2023-12-20T13:17:44;3.42;;;0.88;;
793;SDS011;380;48.738;9.214;2023-12-20T13:20:11;2.17;;;1.02;;
793;SDS011;380;48.738;9.214;2023-12-20T13:22:37;4.80;;;1.05;;
793;SDS011;380;48.738;9.214;2023-12-20T13:25:03;3.42;;;1.38;;
793;SDS011;380;48.738;9.214;2023-12-20T13:27:29;2.38;;;0.73;;
793;SDS011;380;48.738;9.214;2023-12-20T13:29:55;3.10;;;1.35;;
793;SDS011;380;48.738;9.214;2023-12-20T13:32:21;3.40;;;0.82;;
793;SDS011;380;48.738;9.214;2023-12-20T13:34:47;1.85;;;0.93;;
793;SDS011;380;48.738;9.214;2023-12-20T13:37:13;3.85;;;1.15;;
793;SDS011;380;48.738;9.214;2023-12-20T13:39:39;1.85;;;0.88;;
793;SDS011;380;48.738;9.214;2023-12-20T13:42:06;5.13;;;1.88;;
793;SDS011;380;48.738;9.214;2023-12-20T13:44:32;1.42;;;0.80;;
793;SDS011;380;48.738;9.214;2023-12-20T13:46:59;4.43;;;0.90;;
793;SDS011;380;48.738;9.214;2023-12-20T13:49:26;4.97;;;1.40;;
793;SDS011;380;48.738;9.214;2023-12-20T13:51:52;3.45;;;1.23;;
793;SDS011;380;48.738;9.214;2023-12-20T13:54:19;1.45;;;0.77;;
793;SDS011;380;48.738;9.214;2023-12-20T13:56:47;7.90;;;1.20;;
793;SDS011;380;48.738;9.214;2023-12-20T13:59:13;4.10;;;1.02;;
793;SDS011;380;48.738;9.214;2023-12-20T14:01:40;3.33;;;0.73;;
793;SDS011;380;48.738;9.214;2023-12-20T14:04:06;3.20;;;0.85;;
793;SDS011;380;48.738;9.214;2023-12-20T14:06:32;4.55;;;1.00;;
793;SDS011;380;48.738;9.214;2023-12-20T14:08:58;3.55;;;0.88;;
793;SDS011;380;48.738;9.214;2023-12-20T14:11:30;2.08;;;0.85;;
793;SDS011;380;48.738;9.214;2023-12-20T14:13:56;3.28;;;0.50;;
793;SDS011;380;48.738;9.214;2023-12-20T14:16:23;1.00;;;0.32;;
793;SDS011;380;48.738;9.214;2023-12-20T14:18:49;1.90;;;0.85;;
793;SDS011;380;48.738;9.214;2023-12-20T14:21:22;3.50;;;1.02;;
793;SDS011;380;48.738;9.214;2023-12-20T14:23:48;2.25;;;0.77;;
793;SDS011;380;48.738;9.214;2023-12-20T14:26:14;2.03;;;0.70;;
793;SDS011;380;48.738;9.214;2023-12-20T14:28:41;3.60;;;0.80;;
793;SDS011;380;48.738;9.214;2023-12-20T14:31:07;4.47;;;0.80;;
793;SDS011;380;48.738;9.214;2023-12-20T14:33:35;1.23;;;0.60;;
793;SDS011;380;48.738;9.214;2023-12-20T14:36:02;2.22;;;0.90;;
793;SDS011;380;48.738;9.214;2023-12-20T14:38:30;3.70;;;0.90;;
793;SDS011;380;48.738;9.214;2023-12-20T14:40:56;1.55;;;0.75;;
793;SDS011;380;48.738;9.214;2023-12-20T14:43:22;4.82;;;1.45;;
793;SDS011;380;48.738;9.214;2023-12-20T14:45:48;3.17;;;1.38;;
793;SDS011;380;48.738;9.214;2023-12-20T14:48:15;5.13;;;0.90;;
793;SDS011;380;48.738;9.214;2023-12-20T14:50:43;3.97;;;1.25;;
793;SDS011;380;48.738;9.214;2023-12-20T14:53:09;2.00;;;0.77;;
793;SDS011;380;48.738;9.214;2023-12-20T14:55:35;3.03;;;0.80;;
793;SDS011;380;48.738;9.214;2023-12-20T14:58:01;2.88;;;0.77;;
793;SDS011;380;48.738;9.214;2023-12-20T15:00:27;2.88;;;0.82;;
793;SDS011;380;48.738;9.214;2023-12-20T15:02:53;6.18;;;1.52;;
793;SDS011;380;48.738;9.214;2023-12-20T15:05:19;6.57;;;0.98;;
793;SDS011;380;48.738;9.214;2023-12-20T15:07:45;2.78;;;0.88;;
793;SDS011;380;48.738;9.214;2023-12-20T15:10:14;2.10;;;0.82;;
793;SDS011;380;48.738;9.214;2023-12-20T15:12:42;1.60;;;0.70;;
793;SDS011;380;48.738;9.214;2023-12-20T15:15:08;1.17;;;0.68;;
793;SDS011;380;48.738;9.214;2023-12-20T15:17:34;2.78;;;0.90;;
793;SDS011;380;48.738;9.214;2023-12-20T15:20:01;1.02;;;0.50;;
793;SDS011;380;48.738;9.214;2023-12-20T15:22:27;5.00;;;0.90;;
793;SDS011;380;48.738;9.214;2023-12-20T15:24:53;4.40;;;1.02;;
793;SDS011;380;48.738;9.214;2023-12-20T15:27:20;1.77;;;0.77;;
793;SDS011;380;48.738;9.214;2023-12-20T15:29:46;1.95;;;0.70;;
793;SDS011;380;48.738;9.214;2023-12-20T15:32:14;2.63;;;1.00;;
793;SDS011;380;48.738;9.214;2023-12-20T15:34:43;8.35;;;1.52;;
793;SDS011;380;48.738;9.214;2023-12-20T15:37:09;5.47;;;0.95;;
793;SDS011;380;48.738;9.214;2023-12-20T15:39:35;3.85;;;1.30;;
793;SDS011;380;48.738;9.214;2023-12-20T15:42:01;1.23;;;0.65;;
793;SDS011;380;48.738;9.214;2023-12-20T15:44:27;4.50;;;1.42;;
793;SDS011;380;48.738;9.214;2023-12-20T15:46:53;2.78;;;1.17;;